createdAt,value
2019-03-23T00:00:15.336Z,102250.33
2019-03-23T00:05:43.072Z,102241.27
2019-03-23T00:08:11.743Z,102230.55
2019-03-23T00:10:40.743Z,102230.50
2019-03-23T00:13:09.635Z,102230.50
2019-03-23T00:15:38.285Z,102213.32
2019-03-23T00:18:06.846Z,102221.05
2019-03-23T00:20:35.435Z,102210.27
2019-03-23T00:23:04.378Z,102210.27
2019-03-23T00:25:33.053Z,102207.66
2019-03-23T00:28:01.616Z,102207.66
2019-03-23T00:30:30.206Z,102212.46
2019-03-23T00:32:58.880Z,102215.02
2019-03-23T00:35:27.539Z,102202.09
2019-03-23T00:37:56.103Z,102187.44
2019-03-23T00:40:24.688Z,102187.44
2019-03-23T00:42:53.263Z,102187.52
2019-03-23T00:45:21.859Z,102187.52
2019-03-23T00:47:50.425Z,102194.01
2019-03-23T00:50:19.016Z,102189.73
2019-03-23T00:52:47.908Z,102189.73
2019-03-23T00:55:16.501Z,102187.61
2019-03-23T00:57:45.074Z,102177.70
2019-03-23T01:00:14.608Z,102177.70
2019-03-23T01:02:46.327Z,102172.53
2019-03-23T01:05:15.606Z,102172.53
2019-03-23T01:07:44.175Z,102170.83
2019-03-23T01:10:13.310Z,102165.25
2019-03-23T01:12:42.023Z,102160.04
2019-03-23T01:15:12.354Z,102160.04
2019-03-23T01:17:41.418Z,102154.02
2019-03-23T01:20:11.642Z,102134.59
2019-03-23T01:22:40.205Z,102134.59
2019-03-23T01:25:12.905Z,102135.91
2019-03-23T01:27:41.469Z,102135.91
2019-03-23T01:30:14.984Z,102148.84
2019-03-23T01:32:43.553Z,102147.98
2019-03-23T01:35:15.368Z,102141.98
2019-03-23T01:37:43.937Z,102141.98
2019-03-23T01:40:12.772Z,102135.95
2019-03-23T01:42:43.075Z,102135.53
2019-03-23T01:45:15.599Z,102135.53
2019-03-23T01:47:44.679Z,102129.95
2019-03-23T01:50:16.343Z,102133.38
2019-03-23T01:52:44.904Z,102123.91
2019-03-23T01:55:13.558Z,102128.66
2019-03-23T01:57:42.193Z,102128.66
2019-03-23T02:00:12.326Z,102126.92
2019-03-23T02:02:43.971Z,102125.64
2019-03-23T02:05:15.712Z,102126.52
2019-03-23T02:07:44.318Z,102123.08
2019-03-23T02:10:14.470Z,102124.34
2019-03-23T02:12:44.578Z,102124.34
2019-03-23T02:15:16.307Z,102123.50
2019-03-23T02:17:45.026Z,102117.03
2019-03-23T02:20:14.539Z,102117.05
2019-03-23T02:22:43.661Z,102107.55
2019-03-23T02:25:13.816Z,102110.12
2019-03-23T02:27:43.918Z,102112.30
2019-03-23T02:30:15.495Z,102105.84
2019-03-23T02:32:44.101Z,102105.84
2019-03-23T02:35:13.100Z,102101.52
2019-03-23T02:37:41.690Z,102099.38
2019-03-23T02:40:11.492Z,102103.25
2019-03-23T02:42:43.069Z,102102.81
2019-03-23T02:45:13.864Z,102101.97
2019-03-23T02:47:43.968Z,102106.25
2019-03-23T02:50:15.379Z,102100.24
2019-03-23T02:52:44.058Z,102095.94
2019-03-23T02:55:15.644Z,102098.08
2019-03-23T02:57:44.229Z,102101.08
2019-03-23T03:00:14.896Z,102098.52
2019-03-23T03:02:43.490Z,102102.38
2019-03-23T03:05:12.394Z,102103.69
2019-03-23T03:07:43.624Z,102105.41
2019-03-23T03:10:14.769Z,102105.84
2019-03-23T03:12:46.303Z,102105.41
2019-03-23T03:15:15.013Z,102096.37
2019-03-23T03:17:43.936Z,102093.34
2019-03-23T03:20:15.348Z,102102.83
2019-03-23T03:22:43.927Z,102091.61
2019-03-23T03:25:15.723Z,102096.80
2019-03-23T03:27:44.312Z,102102.83
2019-03-23T03:30:14.683Z,102098.50
2019-03-23T03:32:46.230Z,102098.50
2019-03-23T03:35:14.857Z,102092.48
2019-03-23T03:37:55.885Z,102097.66
2019-03-23T03:40:13.809Z,102090.77
2019-03-23T03:42:45.383Z,102090.77
2019-03-23T03:45:29.107Z,102089.03
2019-03-23T03:47:57.833Z,102091.19
2019-03-23T03:50:26.476Z,102088.59
2019-03-23T03:52:55.065Z,102087.73
2019-03-23T03:55:23.630Z,102086.47
2019-03-23T03:57:52.215Z,102078.70
2019-03-23T04:00:20.785Z,102076.96
2019-03-23T04:02:49.465Z,102072.65
2019-03-23T04:05:18.018Z,102075.26
2019-03-23T04:07:47.045Z,102069.23
2019-03-23T04:10:15.641Z,102069.23
2019-03-23T04:12:44.217Z,102064.92
2019-03-23T04:15:13.119Z,102064.92
2019-03-23T04:17:44.450Z,102064.92
2019-03-23T04:20:16.179Z,102068.78
2019-03-23T04:22:45.100Z,102053.73
2019-03-23T04:25:13.741Z,102066.64
2019-03-23T04:27:43.852Z,102065.78
2019-03-23T04:30:13.175Z,102069.65
2019-03-23T04:32:44.761Z,102069.63
2019-03-23T04:35:13.449Z,102070.52
2019-03-23T04:37:42.373Z,102070.52
2019-03-23T04:40:12.699Z,102070.06
2019-03-23T04:42:41.836Z,102070.06
2019-03-23T04:45:12.989Z,102065.31
2019-03-23T04:47:41.721Z,102059.27
2019-03-23T04:50:11.527Z,102064.02
2019-03-23T04:52:42.162Z,102064.02
2019-03-23T04:55:12.441Z,102051.53
2019-03-23T04:57:41.452Z,102040.77
2019-03-23T05:00:16.039Z,102046.78
2019-03-23T05:02:44.925Z,102048.08
2019-03-23T05:05:13.581Z,102048.08
2019-03-23T05:07:43.657Z,102051.53
2019-03-23T05:10:15.310Z,102054.97
2019-03-23T05:12:43.870Z,102049.38
2019-03-23T05:15:15.782Z,102048.92
2019-03-23T05:17:44.667Z,102042.91
2019-03-23T05:20:29.889Z,102042.91
2019-03-23T05:22:59.180Z,102048.04
2019-03-23T05:25:31.020Z,102039.00
2019-03-23T05:27:59.656Z,102033.41
2019-03-23T05:30:28.573Z,102032.94
2019-03-23T05:32:57.217Z,102036.00
2019-03-23T05:35:25.875Z,102036.00
2019-03-23T05:37:54.786Z,102031.70
2019-03-23T05:40:23.376Z,102035.15
2019-03-23T05:42:51.939Z,102035.15
2019-03-23T05:45:20.533Z,102041.19
2019-03-23T05:47:49.106Z,102038.55
2019-03-23T05:50:17.696Z,102038.55
2019-03-23T05:52:46.259Z,102032.52
2019-03-23T05:55:14.837Z,102026.09
2019-03-23T05:57:43.474Z,102026.09
2019-03-23T06:00:13.980Z,102026.97
2019-03-23T06:02:45.795Z,102026.97
2019-03-23T06:05:14.382Z,102029.52
2019-03-23T06:07:44.589Z,102025.67
2019-03-23T06:10:16.021Z,102024.39
2019-03-23T06:12:45.507Z,102031.27
2019-03-23T06:15:14.223Z,102038.62
2019-03-23T06:17:42.794Z,102038.62
2019-03-23T06:20:11.446Z,102026.13
2019-03-23T06:22:40.453Z,102034.71
2019-03-23T06:25:09.037Z,102034.73
2019-03-23T06:27:37.941Z,102033.91
2019-03-23T06:30:09.364Z,102033.91
2019-03-23T06:32:37.928Z,102035.64
2019-03-23T06:35:08.571Z,102036.50
2019-03-23T06:37:37.131Z,102036.50
2019-03-23T06:40:09.100Z,102020.14
2019-03-23T06:42:37.721Z,102014.55
2019-03-23T06:45:09.209Z,102021.40
2019-03-23T06:47:38.348Z,102012.80
2019-03-23T06:50:09.214Z,102012.80
2019-03-23T06:52:37.775Z,102020.53
2019-03-23T06:55:09.895Z,102024.81
2019-03-23T06:57:38.452Z,102026.11
2019-03-23T07:00:15.547Z,102020.88
2019-03-23T07:02:44.174Z,102031.61
2019-03-23T07:05:13.400Z,102031.53
2019-03-23T07:07:42.332Z,102032.77
2019-03-23T07:10:12.651Z,102029.75
2019-03-23T07:12:42.978Z,102027.88
2019-03-23T07:15:19.970Z,102031.78
2019-03-23T07:17:45.495Z,102037.23
2019-03-23T07:20:14.809Z,102038.36
2019-03-23T07:22:46.095Z,102041.64
2019-03-23T07:25:14.764Z,102035.91
2019-03-23T07:27:43.320Z,102037.05
2019-03-23T07:30:19.591Z,102047.29
2019-03-23T07:32:48.157Z,102039.73
2019-03-23T07:35:16.875Z,102035.80
2019-03-23T07:37:45.504Z,102035.58
2019-03-23T07:40:14.332Z,102031.62
2019-03-23T07:42:44.443Z,102026.73
2019-03-23T07:45:15.313Z,102025.69
2019-03-23T07:47:44.466Z,102025.63
2019-03-23T07:50:16.070Z,102033.33
2019-03-23T07:52:44.914Z,102036.20
2019-03-23T07:55:14.924Z,102038.05
2019-03-23T07:57:43.621Z,102040.09
2019-03-23T08:00:14.926Z,102042.95
2019-03-23T08:02:43.919Z,102044.03
2019-03-23T08:05:15.091Z,102041.64
2019-03-23T08:07:43.665Z,102044.33
2019-03-23T08:10:33.020Z,102057.05
2019-03-23T08:13:01.847Z,102049.97
2019-03-23T08:15:30.739Z,102054.41
2019-03-23T08:17:59.356Z,102050.27
2019-03-23T08:20:27.913Z,102046.69
2019-03-23T08:22:56.990Z,102047.69
2019-03-23T08:25:26.016Z,102043.42
2019-03-23T08:27:54.599Z,102038.28
2019-03-23T08:30:23.230Z,102043.02
2019-03-23T08:32:51.849Z,102043.52
2019-03-23T08:35:20.880Z,102044.55
2019-03-23T08:37:49.472Z,102042.09
2019-03-23T08:40:18.371Z,102042.00
2019-03-23T08:42:46.951Z,102043.57
2019-03-23T08:45:15.900Z,102037.63
2019-03-23T08:47:44.487Z,102038.88
2019-03-23T08:50:14.575Z,102033.58
2019-03-23T08:52:45.924Z,102032.98
2019-03-23T08:55:14.622Z,102027.36
2019-03-23T08:57:46.074Z,102023.62
2019-03-23T09:00:14.699Z,102026.35
2019-03-23T09:02:46.318Z,102029.93
2019-03-23T09:05:14.887Z,102029.83
2019-03-23T09:07:43.475Z,102029.39
2019-03-23T09:10:12.169Z,102021.98
2019-03-23T09:12:42.282Z,102028.19
2019-03-23T09:15:12.953Z,102023.29
2019-03-23T09:17:41.534Z,102027.06
2019-03-23T09:20:14.497Z,102025.84
2019-03-23T09:22:44.626Z,102025.61
2019-03-23T09:25:15.954Z,102026.67
2019-03-23T09:27:45.005Z,102029.03
2019-03-23T09:30:14.341Z,102026.05
2019-03-23T09:32:44.608Z,102019.33
2019-03-23T09:35:14.463Z,102012.48
2019-03-23T09:37:44.588Z,102012.66
2019-03-23T09:40:15.930Z,102014.89
2019-03-23T09:42:44.613Z,102015.87
2019-03-23T09:45:16.310Z,102021.89
2019-03-23T09:47:45.229Z,102027.47
2019-03-23T09:50:14.525Z,102025.50
2019-03-23T09:52:44.682Z,102024.98
2019-03-23T09:55:16.128Z,102026.42
2019-03-23T09:57:44.740Z,102024.34
2019-03-23T10:00:16.641Z,102025.78
2019-03-23T10:02:45.251Z,102027.53
2019-03-23T10:05:13.870Z,102038.69
2019-03-23T10:07:42.508Z,102047.14
2019-03-23T10:10:21.232Z,102041.27
2019-03-23T10:12:46.115Z,102048.05
2019-03-23T10:15:14.697Z,102044.47
2019-03-23T10:17:45.981Z,102034.43
2019-03-23T10:20:14.634Z,102022.34
2019-03-23T10:22:45.952Z,102025.86
2019-03-23T10:25:14.607Z,102026.28
2019-03-23T10:27:46.225Z,102021.11
2019-03-23T10:30:15.006Z,102022.74
2019-03-23T10:32:43.919Z,102023.05
2019-03-23T10:35:15.217Z,102028.39
2019-03-23T10:37:44.136Z,102021.36
2019-03-23T10:40:12.961Z,102026.78
2019-03-23T10:42:43.381Z,102018.71
2019-03-23T10:45:13.869Z,102023.29
2019-03-23T10:47:42.764Z,102026.85
2019-03-23T10:50:11.520Z,102021.61
2019-03-23T10:52:40.733Z,102024.16
2019-03-23T10:55:09.647Z,102022.34
2019-03-23T10:57:38.208Z,102018.09
2019-03-23T11:00:12.433Z,102016.67
2019-03-23T11:02:44.033Z,102016.21
2019-03-23T11:05:15.729Z,102022.18
2019-03-23T11:07:45.369Z,102020.41
2019-03-23T11:10:14.830Z,102017.19
2019-03-23T11:12:43.455Z,102015.50
2019-03-23T11:15:12.195Z,102015.73
2019-03-23T11:17:41.779Z,102019.87
2019-03-23T11:20:12.512Z,102016.83
2019-03-23T11:22:41.143Z,102016.39
2019-03-23T11:25:10.368Z,102010.88
2019-03-23T11:27:39.016Z,102005.99
2019-03-23T11:30:10.290Z,102007.91
2019-03-23T11:32:38.913Z,102007.11
2019-03-23T11:35:08.159Z,102006.59
2019-03-23T11:37:37.341Z,102005.44
2019-03-23T11:40:12.810Z,102006.82
2019-03-23T11:42:50.013Z,102011.27
2019-03-23T11:45:13.692Z,102008.99
2019-03-23T11:47:43.747Z,102010.55
2019-03-23T11:50:15.760Z,101998.12
2019-03-23T11:52:44.381Z,102003.23
2019-03-23T11:55:14.640Z,102001.77
2019-03-23T11:57:45.930Z,101997.34
2019-03-23T12:00:16.055Z,101995.27
2019-03-23T12:02:44.797Z,101989.93
2019-03-23T12:05:14.226Z,101988.70
2019-03-23T12:07:42.769Z,101994.15
2019-03-23T12:10:13.101Z,101994.79
2019-03-23T12:12:44.302Z,101994.50
2019-03-23T12:15:14.490Z,101994.64
2019-03-23T12:17:44.620Z,101995.58
2019-03-23T12:20:16.208Z,102000.33
2019-03-23T12:22:44.851Z,101996.67
2019-03-23T12:25:13.572Z,101998.88
2019-03-23T12:27:43.643Z,102003.43
2019-03-23T12:30:15.208Z,102003.84
2019-03-23T12:32:43.838Z,102002.77
2019-03-23T12:35:15.367Z,102004.38
2019-03-23T12:37:43.928Z,102009.05
2019-03-23T12:40:15.297Z,102003.34
2019-03-23T12:42:43.956Z,102010.96
2019-03-23T12:45:15.462Z,102019.94
2019-03-23T12:47:44.389Z,102015.40
2019-03-23T12:50:14.651Z,102021.73
2019-03-23T12:52:46.011Z,102013.16
2019-03-23T12:55:14.725Z,102020.23
2019-03-23T12:57:46.114Z,102023.19
2019-03-23T13:00:16.164Z,102023.11
2019-03-23T13:02:44.981Z,102023.06
2019-03-23T13:05:13.535Z,102020.92
2019-03-23T13:07:42.181Z,102023.19
2019-03-23T13:10:14.804Z,102031.62
2019-03-23T13:12:43.532Z,102028.44
2019-03-23T13:15:16.466Z,102037.98
2019-03-23T13:17:45.369Z,102046.97
2019-03-23T13:20:14.224Z,102061.66
2019-03-23T13:22:42.930Z,102057.04
2019-03-23T13:25:11.651Z,102062.68
2019-03-23T13:27:42.137Z,102066.20
2019-03-23T13:30:17.706Z,102070.65
2019-03-23T13:32:46.525Z,102073.79
2019-03-23T13:35:15.229Z,102086.83
2019-03-23T13:37:43.824Z,102084.38
2019-03-23T13:40:13.900Z,102086.61
2019-03-23T13:42:46.347Z,102078.86
2019-03-23T13:45:16.028Z,102086.42
2019-03-23T13:47:44.708Z,102084.94
2019-03-23T13:50:27.961Z,102088.58
2019-03-23T13:52:56.602Z,102081.30
2019-03-23T13:55:27.521Z,102083.03
2019-03-23T13:57:56.421Z,102086.53
2019-03-23T14:00:25.092Z,102098.88
2019-03-23T14:02:53.700Z,102095.78
2019-03-23T14:05:22.308Z,102101.91
2019-03-23T14:07:50.928Z,102099.59
2019-03-23T14:10:19.553Z,102105.34
2019-03-23T14:12:48.570Z,102098.70
2019-03-23T14:15:17.153Z,102108.59
2019-03-23T14:17:45.739Z,102105.91
2019-03-23T14:20:14.633Z,102114.27
2019-03-23T14:22:46.329Z,102109.59
2019-03-23T14:25:14.890Z,102112.20
2019-03-23T14:27:43.501Z,102114.12
2019-03-23T14:30:15.675Z,102112.53
2019-03-23T14:32:44.257Z,102111.00
2019-03-23T14:35:12.810Z,102110.91
2019-03-23T14:37:43.140Z,102119.09
2019-03-23T14:40:14.657Z,102118.73
2019-03-23T14:42:46.353Z,102113.02
2019-03-23T14:45:14.905Z,102118.63
2019-03-23T14:47:43.522Z,102128.20
2019-03-23T14:50:12.412Z,102134.16
2019-03-23T14:52:41.886Z,102133.70
2019-03-23T14:55:12.880Z,102138.42
2019-03-23T14:57:41.458Z,102145.19
2019-03-23T15:00:12.807Z,102144.52
2019-03-23T15:02:43.123Z,102147.92
2019-03-23T15:05:14.807Z,102146.44
2019-03-23T15:07:46.448Z,102154.56
2019-03-23T15:10:15.125Z,102147.89
2019-03-23T15:12:43.680Z,102152.34
2019-03-23T15:15:13.921Z,102153.48
2019-03-23T15:17:48.756Z,102151.66
2019-03-23T15:20:13.125Z,102153.69
2019-03-23T15:22:44.429Z,102155.87
2019-03-23T15:25:14.934Z,102161.05
2019-03-23T15:27:43.497Z,102160.44
2019-03-23T15:30:13.766Z,102157.09
2019-03-23T15:32:43.835Z,102162.93
2019-03-23T15:35:15.506Z,102166.34
2019-03-23T15:37:44.055Z,102170.40
2019-03-23T15:40:12.875Z,102166.35
2019-03-23T15:42:41.504Z,102164.89
2019-03-23T15:45:10.178Z,102170.70
2019-03-23T15:47:38.733Z,102176.35
2019-03-23T15:50:09.658Z,102173.60
2019-03-23T15:52:38.289Z,102176.88
2019-03-23T15:55:07.186Z,102184.44
2019-03-23T15:57:36.410Z,102177.10
2019-03-23T16:00:08.055Z,102178.16
2019-03-23T16:02:36.678Z,102179.80
2019-03-23T16:05:07.278Z,102177.12
2019-03-23T16:07:36.019Z,102172.80
2019-03-23T16:10:07.274Z,102173.92
2019-03-23T16:12:37.755Z,102174.38
2019-03-23T16:15:08.697Z,102180.46
2019-03-23T16:17:37.738Z,102174.03
2019-03-23T16:20:09.029Z,102179.02
2019-03-23T16:22:38.232Z,102180.91
2019-03-23T16:25:12.582Z,102182.80
2019-03-23T16:27:42.850Z,102181.38
2019-03-23T16:30:13.342Z,102184.36
2019-03-23T16:32:43.780Z,102180.56
2019-03-23T16:35:15.565Z,102181.80
2019-03-23T16:37:44.125Z,102181.54
2019-03-23T16:40:15.876Z,102177.06
2019-03-23T16:42:45.611Z,102183.20
2019-03-23T16:45:14.914Z,102174.85
2019-03-23T16:47:45.213Z,102181.78
2019-03-23T16:50:14.072Z,102181.29
2019-03-23T16:52:42.795Z,102179.13
2019-03-23T16:55:13.877Z,102180.73
2019-03-23T16:57:42.783Z,102181.59
2019-03-23T17:00:15.703Z,102177.06
2019-03-23T17:02:44.331Z,102182.27
2019-03-23T17:05:14.689Z,102186.20
2019-03-23T17:07:46.215Z,102183.00
2019-03-23T17:10:14.974Z,102183.22
2019-03-23T17:12:43.620Z,102184.98
2019-03-23T17:15:13.977Z,102182.97
2019-03-23T17:17:45.594Z,102190.50
2019-03-23T17:20:14.322Z,102186.74
2019-03-23T17:22:42.889Z,102187.20
2019-03-23T17:25:11.988Z,102197.32
2019-03-23T17:27:42.589Z,102206.46
2019-03-23T17:30:11.529Z,102207.77
2019-03-23T17:32:41.323Z,102208.70
2019-03-23T17:35:11.118Z,102211.02
2019-03-23T17:37:39.667Z,102212.91
2019-03-23T17:40:08.866Z,102216.81
2019-03-23T17:42:37.555Z,102225.69
2019-03-23T17:45:07.631Z,102227.58
2019-03-23T17:47:36.214Z,102226.77
2019-03-23T17:50:05.718Z,102234.22
2019-03-23T17:52:34.338Z,102235.27
2019-03-23T17:55:02.958Z,102241.45
2019-03-23T17:57:31.580Z,102233.18
2019-03-23T18:00:00.260Z,102242.44
2019-03-23T18:02:28.860Z,102238.52
2019-03-23T18:04:57.426Z,102239.06
2019-03-23T18:07:26.040Z,102239.61
2019-03-23T18:09:55.410Z,102241.59
2019-03-23T18:12:23.996Z,102248.30
2019-03-23T18:14:52.549Z,102249.20
2019-03-23T18:17:21.580Z,102245.00
2019-03-23T18:19:50.141Z,102245.86
2019-03-23T18:22:18.799Z,102251.07
2019-03-23T18:24:47.360Z,102247.75
2019-03-23T18:27:15.943Z,102251.98
2019-03-23T18:29:44.511Z,102248.06
2019-03-23T18:32:14.639Z,102251.02
2019-03-23T18:34:45.875Z,102261.27
2019-03-23T18:37:14.527Z,102259.37
2019-03-23T18:39:44.942Z,102260.44
2019-03-23T18:42:13.615Z,102259.98
2019-03-23T18:44:43.793Z,102263.90
2019-03-23T18:47:13.952Z,102270.67
2019-03-23T18:49:45.546Z,102270.17
2019-03-23T18:52:14.168Z,102277.50
2019-03-23T18:54:42.782Z,102269.72
2019-03-23T18:57:13.664Z,102271.88
2019-03-23T18:59:43.835Z,102273.67
2019-03-23T19:02:13.984Z,102282.17
2019-03-23T19:04:45.879Z,102280.75
2019-03-23T19:07:14.694Z,102285.77
2019-03-23T19:09:46.282Z,102285.22
2019-03-23T19:12:15.014Z,102291.35
2019-03-23T19:14:43.644Z,102291.90
2019-03-23T19:17:13.916Z,102288.53
2019-03-23T19:19:42.756Z,102287.98
2019-03-23T19:22:13.008Z,102291.30
2019-03-23T19:24:41.636Z,102292.25
2019-03-23T19:27:10.235Z,102294.16
2019-03-23T19:29:38.848Z,102283.63
2019-03-23T19:32:07.455Z,102292.66
2019-03-23T19:34:36.081Z,102296.57
2019-03-23T19:37:04.810Z,102294.02
2019-03-23T19:39:33.450Z,102299.98
2019-03-23T19:42:02.089Z,102296.06
2019-03-23T19:44:30.711Z,102296.52
2019-03-23T19:46:59.344Z,102298.72
2019-03-23T19:49:28.287Z,102300.38
2019-03-23T19:51:56.923Z,102311.23
2019-03-23T19:54:25.578Z,102314.37
2019-03-23T19:56:54.230Z,102316.00
2019-03-23T19:59:22.998Z,102318.94
2019-03-23T20:01:51.622Z,102319.44
2019-03-23T20:04:20.652Z,102319.85
2019-03-23T20:06:49.280Z,102321.50
2019-03-23T20:09:17.918Z,102322.46
2019-03-23T20:11:47.673Z,102325.06
2019-03-23T20:14:16.825Z,102322.55
2019-03-23T20:16:45.436Z,102322.55
2019-03-23T20:19:14.498Z,102324.30
2019-03-23T20:21:44.454Z,102329.62
2019-03-23T20:24:13.611Z,102327.37
2019-03-23T20:26:43.721Z,102328.30
2019-03-23T20:29:13.898Z,102329.52
2019-03-23T20:31:42.847Z,102325.70
2019-03-23T20:34:12.602Z,102328.63
2019-03-23T20:36:42.895Z,102325.63
2019-03-23T20:39:11.838Z,102324.36
2019-03-23T20:41:40.800Z,102324.67
2019-03-23T20:44:10.092Z,102326.74
2019-03-23T20:46:39.326Z,102327.68
2019-03-23T20:49:08.669Z,102325.80
2019-03-23T20:51:37.282Z,102326.61
2019-03-23T20:54:05.903Z,102327.81
2019-03-23T20:56:34.460Z,102324.84
2019-03-23T20:59:03.057Z,102326.47
2019-03-23T21:01:31.681Z,102327.27
2019-03-23T21:04:00.296Z,102331.91
2019-03-23T21:06:28.920Z,102330.59
2019-03-23T21:08:57.955Z,102326.78
2019-03-23T21:11:26.575Z,102327.05
2019-03-23T21:13:55.199Z,102330.55
2019-03-23T21:16:23.818Z,102328.76
2019-03-23T21:18:52.841Z,102334.42
2019-03-23T21:21:21.464Z,102332.35
2019-03-23T21:23:52.018Z,102331.45
2019-03-23T21:26:20.444Z,102330.41
2019-03-23T21:28:49.059Z,102330.45
2019-03-23T21:31:18.096Z,102333.27
2019-03-23T21:33:46.718Z,102339.25
2019-03-23T21:36:15.338Z,102330.09
2019-03-23T21:38:44.378Z,102330.53
2019-03-23T21:41:14.654Z,102333.95
2019-03-23T21:43:46.023Z,102330.70
2019-03-23T21:46:14.667Z,102336.41
2019-03-23T21:48:46.269Z,102344.18
2019-03-23T21:51:14.863Z,102343.40
2019-03-23T21:53:43.487Z,102350.44
2019-03-23T21:56:12.094Z,102346.83
2019-03-23T21:58:43.072Z,102337.25
2019-03-23T22:01:11.791Z,102337.91
2019-03-23T22:03:43.077Z,102338.80
2019-03-23T22:06:11.911Z,102337.20
2019-03-23T22:08:40.726Z,102335.91
2019-03-23T22:11:09.340Z,102340.44
2019-03-23T22:13:37.953Z,102339.66
2019-03-23T22:16:06.585Z,102343.94
2019-03-23T22:18:35.188Z,102343.08
2019-03-23T22:21:03.927Z,102346.54
2019-03-23T22:23:32.530Z,102349.22
2019-03-23T22:26:01.158Z,102347.51
2019-03-23T22:28:29.783Z,102349.09
2019-03-23T22:30:58.785Z,102353.50
2019-03-23T22:33:27.358Z,102342.33
2019-03-23T22:35:56.018Z,102351.06
2019-03-23T22:38:25.050Z,102347.47
2019-03-23T22:40:54.075Z,102341.55
2019-03-23T22:43:22.690Z,102343.47
2019-03-23T22:45:51.295Z,102349.22
2019-03-23T22:48:19.941Z,102341.00
2019-03-23T22:50:48.557Z,102339.34
2019-03-23T22:53:17.179Z,102336.82
2019-03-23T22:55:46.227Z,102338.31
2019-03-23T22:58:15.244Z,102338.91
2019-03-23T23:00:45.086Z,102334.75
2019-03-23T23:03:14.005Z,102333.03
2019-03-23T23:05:45.405Z,102326.62
2019-03-23T23:08:14.011Z,102326.71
2019-03-23T23:10:45.608Z,102329.73
2019-03-23T23:13:14.185Z,102330.25
2019-03-23T23:15:42.737Z,102332.03
2019-03-23T23:18:13.118Z,102329.07
2019-03-23T23:20:41.733Z,102331.25
2019-03-23T23:23:10.316Z,102337.72
2019-03-23T23:25:38.863Z,102335.95
2019-03-23T23:28:07.923Z,102327.25
2019-03-23T23:30:36.544Z,102327.22
2019-03-23T23:33:05.562Z,102332.80
2019-03-23T23:35:34.124Z,102332.78
2019-03-23T23:38:02.787Z,102333.23
2019-03-23T23:40:31.807Z,102334.52
2019-03-23T23:43:00.418Z,102335.80
2019-03-23T23:45:28.976Z,102332.77
2019-03-23T23:47:57.558Z,102337.13
2019-03-23T23:50:26.155Z,102344.05
2019-03-23T23:52:54.768Z,102340.52
2019-03-23T23:55:23.375Z,102342.53
2019-03-23T23:57:52.090Z,102347.33
